Time;durP1;ratioP1;P1;durP2;ratioP2;P2;SDS_P1;SDS_P2;PMS_P1;PMS_P2;Temp;Humidity;BMP_temperature;BMP_pressure;BME280_temperature;BME280_humidity;BME280_pressure;Samples;Min_cycle;Max_cycle;Signal;HPM_P1;HPM_P2
2023/09/18 00:00:56;;;;;;;21.17;17.88;;;17.00;99.90;;;;;;5054135;28;20047;-74
2023/09/18 00:03:24;;;;;;;21.17;18.08;;;17.00;99.90;;;;;;5054019;28;20056;-74
2023/09/18 00:05:51;;;;;;;21.88;18.70;;;17.00;99.90;;;;;;5053510;28;20080;-74
2023/09/18 00:08:19;;;;;;;15.63;12.05;;;17.00;99.90;;;;;;5020803;28;20217;-74
2023/09/18 00:10:53;;;;;;;19.30;16.25;;;17.00;99.90;;;;;;5053885;28;20049;-75
2023/09/18 00:13:19;;;;;;;22.63;17.98;;;17.00;99.90;;;;;;5053446;28;20443;-74
2023/09/18 00:15:46;;;;;;;23.13;19.10;;;16.90;99.90;;;;;;5053546;28;20110;-74
2023/09/18 00:18:16;;;;;;;23.77;20.80;;;17.00;99.90;;;;;;5053842;28;20479;-75
2023/09/18 00:20:43;;;;;;;22.27;19.88;;;16.90;99.90;;;;;;5053736;28;20052;-74
2023/09/18 00:23:10;;;;;;;20.15;17.92;;;16.90;99.90;;;;;;5053198;28;20103;-73
2023/09/18 00:25:42;;;;;;;22.30;17.20;;;16.90;99.90;;;;;;5052317;28;20049;-73
2023/09/18 00:28:08;;;;;;;23.80;21.23;;;16.80;99.90;;;;;;5051231;28;20113;-74
2023/09/18 00:30:34;;;;;;;23.63;20.80;;;16.80;99.90;;;;;;5053731;28;20047;-74
2023/09/18 00:32:59;;;;;;;28.35;25.02;;;16.80;99.90;;;;;;5039130;28;20132;-74
2023/09/18 00:35:25;;;;;;;26.52;23.73;;;16.80;99.90;;;;;;5025899;28;20076;-74
2023/09/18 00:37:51;;;;;;;25.67;22.20;;;16.80;99.90;;;;;;5070912;28;20043;-75
2023/09/18 00:40:17;;;;;;;34.60;30.80;;;16.80;99.90;;;;;;5049873;28;20047;-74
2023/09/18 00:42:42;;;;;;;36.97;31.92;;;16.80;99.90;;;;;;5057253;28;20148;-74
2023/09/18 00:45:09;;;;;;;41.75;33.03;;;16.80;99.90;;;;;;5069485;28;20045;-74
2023/09/18 00:47:36;;;;;;;39.72;34.58;;;16.80;99.90;;;;;;5078590;28;20045;-74
2023/09/18 00:50:04;;;;;;;33.22;28.08;;;16.80;99.90;;;;;;5022508;28;20041;-74
2023/09/18 00:52:29;;;;;;;27.60;24.17;;;16.80;99.90;;;;;;5047879;28;20072;-74
2023/09/18 00:54:55;;;;;;;39.47;32.42;;;16.80;99.90;;;;;;5036634;28;20396;-74
2023/09/18 00:57:21;;;;;;;36.72;31.15;;;16.80;99.90;;;;;;5060535;28;20505;-74
2023/09/18 00:59:47;;;;;;;37.25;32.38;;;16.80;99.90;;;;;;5053416;28;20055;-74
2023/09/18 01:02:13;;;;;;;38.78;31.67;;;16.80;99.90;;;;;;5052941;28;20044;-74
2023/09/18 01:04:43;;;;;;;38.10;31.45;;;16.80;99.90;;;;;;5052395;28;20059;-74
2023/09/18 01:07:09;;;;;;;43.28;35.97;;;16.80;99.90;;;;;;5052985;28;20175;-74
2023/09/18 01:09:35;;;;;;;38.85;31.95;;;16.90;99.90;;;;;;5053276;28;20433;-74
2023/09/18 01:12:05;;;;;;;42.58;35.45;;;16.80;99.90;;;;;;5052584;28;20052;-76
2023/09/18 01:15:04;;;;;;;47.35;38.10;;;16.90;99.90;;;;;;5045863;28;20052;-75
2023/09/18 01:17:34;;;;;;;42.85;35.95;;;16.90;99.90;;;;;;5065541;28;20702;-74
2023/09/18 01:20:00;;;;;;;44.00;36.05;;;16.80;99.90;;;;;;5052251;28;20052;-74
2023/09/18 01:22:30;;;;;;;41.47;34.47;;;16.90;99.90;;;;;;5052397;28;20041;-74
2023/09/18 01:24:55;;;;;;;40.80;34.55;;;16.90;99.90;;;;;;5039189;28;20053;-74
2023/09/18 01:27:21;;;;;;;39.38;34.70;;;16.90;99.90;;;;;;5073992;28;20049;-74
2023/09/18 01:29:48;;;;;;;44.05;36.65;;;16.80;99.90;;;;;;5049154;28;20493;-74
2023/09/18 01:32:14;;;;;;;46.92;38.00;;;16.80;99.90;;;;;;5051791;28;20061;-74
2023/09/18 01:34:50;;;;;;;46.03;37.75;;;16.80;99.90;;;;;;5051973;28;20102;-74
2023/09/18 01:37:20;;;;;;;45.70;33.78;;;16.80;99.90;;;;;;5045685;28;20047;-74
2023/09/18 01:39:48;;;;;;;44.05;35.90;;;16.80;99.90;;;;;;5049762;28;20830;-74
2023/09/18 01:42:14;;;;;;;32.15;27.00;;;16.80;99.90;;;;;;5040383;28;20065;-74
2023/09/18 01:44:40;;;;;;;38.90;31.33;;;16.80;99.90;;;;;;5037904;28;20049;-74
2023/09/18 01:47:08;;;;;;;41.72;34.30;;;16.80;99.90;;;;;;5039322;28;20049;-74
2023/09/18 01:49:36;;;;;;;41.38;33.33;;;16.80;99.90;;;;;;5048117;28;20127;-74
2023/09/18 01:52:03;;;;;;;37.45;29.90;;;16.80;99.90;;;;;;5036279;28;20075;-74
2023/09/18 01:54:33;;;;;;;37.05;30.35;;;16.80;99.90;;;;;;5042004;28;20067;-74
2023/09/18 01:56:59;;;;;;;39.90;33.75;;;16.80;99.90;;;;;;5036480;28;20060;-74
2023/09/18 01:59:25;;;;;;;42.08;34.35;;;16.80;99.90;;;;;;5057549;28;20477;-74
2023/09/18 02:01:54;;;;;;;40.75;33.00;;;16.80;99.90;;;;;;5072813;28;20045;-74
2023/09/18 02:04:20;;;;;;;39.67;34.10;;;16.80;99.90;;;;;;5055074;28;20372;-75
2023/09/18 02:06:47;;;;;;;40.08;33.25;;;16.80;99.90;;;;;;5051518;28;20053;-76
2023/09/18 02:09:13;;;;;;;40.38;35.63;;;16.80;99.90;;;;;;5051700;28;20091;-74
2023/09/18 02:11:42;;;;;;;42.75;32.63;;;16.80;99.90;;;;;;5051704;28;20041;-74
2023/09/18 02:14:09;;;;;;;35.88;30.23;;;16.80;99.90;;;;;;5034559;28;20049;-74
2023/09/18 02:16:36;;;;;;;35.70;30.35;;;16.80;99.90;;;;;;5051564;28;20044;-74
2023/09/18 02:19:03;;;;;;;33.65;29.77;;;16.80;99.90;;;;;;5051501;28;20501;-74
2023/09/18 02:21:29;;;;;;;39.97;32.17;;;16.80;99.90;;;;;;5014400;28;20425;-75
2023/09/18 02:23:55;;;;;;;39.90;33.00;;;16.80;99.90;;;;;;5031463;28;20465;-73
2023/09/18 02:26:22;;;;;;;39.45;32.53;;;16.80;99.90;;;;;;5031638;28;20048;-74
2023/09/18 02:28:48;;;;;;;39.38;31.17;;;16.80;99.90;;;;;;5047936;28;20045;-73
2023/09/18 02:31:15;;;;;;;33.42;28.35;;;16.80;99.90;;;;;;5048276;28;20068;-74
2023/09/18 02:33:41;;;;;;;36.92;29.17;;;16.80;99.90;;;;;;5050565;28;20057;-74
2023/09/18 02:36:07;;;;;;;39.13;32.72;;;16.80;99.90;;;;;;5048948;28;20044;-73
2023/09/18 02:38:33;;;;;;;43.15;33.67;;;16.80;99.90;;;;;;5046893;28;20053;-74
2023/09/18 02:41:00;;;;;;;37.78;32.30;;;16.80;99.90;;;;;;5050071;28;20037;-74
2023/09/18 02:43:26;;;;;;;39.70;32.40;;;16.80;99.90;;;;;;5050905;28;20052;-74
2023/09/18 02:45:52;;;;;;;36.53;31.75;;;16.80;99.90;;;;;;5049308;28;20049;-74
2023/09/18 02:48:18;;;;;;;38.90;32.65;;;16.80;99.90;;;;;;5053281;28;20045;-74
2023/09/18 02:50:44;;;;;;;36.72;31.05;;;16.80;99.90;;;;;;5039247;28;20515;-74
2023/09/18 02:53:19;;;;;;;34.65;29.17;;;16.80;99.90;;;;;;5036171;28;20041;-74
2023/09/18 02:55:49;;;;;;;34.33;29.17;;;16.80;99.90;;;;;;5057239;28;20128;-74
2023/09/18 02:58:16;;;;;;;35.80;29.23;;;16.80;99.90;;;;;;5053417;28;20087;-74
2023/09/18 03:00:49;;;;;;;39.88;32.03;;;16.80;99.90;;;;;;5052238;28;20088;-74
2023/09/18 03:03:15;;;;;;;34.47;30.73;;;16.80;99.90;;;;;;5052732;28;20549;-74
2023/09/18 03:05:42;;;;;;;39.53;31.73;;;16.80;99.90;;;;;;5053089;28;20500;-76
2023/09/18 03:08:08;;;;;;;32.63;28.13;;;16.80;99.90;;;;;;5050757;28;20048;-74
2023/09/18 03:10:35;;;;;;;31.40;27.35;;;16.80;99.90;;;;;;5052857;28;20049;-74
2023/09/18 03:13:02;;;;;;;34.42;29.17;;;16.80;99.90;;;;;;5053660;28;20120;-74
2023/09/18 03:15:28;;;;;;;35.38;30.63;;;16.80;99.90;;;;;;5053825;28;20045;-74
2023/09/18 03:17:53;;;;;;;38.00;31.27;;;16.80;99.90;;;;;;5059781;28;20622;-73
2023/09/18 03:20:22;;;;;;;33.83;27.88;;;16.80;99.90;;;;;;5070392;28;20044;-74
2023/09/18 03:22:49;;;;;;;32.25;25.48;;;16.80;99.90;;;;;;5034479;28;20057;-74
2023/09/18 03:25:15;;;;;;;34.67;30.52;;;16.80;99.90;;;;;;5042516;28;20144;-73
2023/09/18 03:27:41;;;;;;;31.20;27.83;;;16.70;99.90;;;;;;5070825;28;20133;-74
2023/09/18 03:30:07;;;;;;;34.20;30.23;;;16.70;99.90;;;;;;5017000;28;20052;-74
2023/09/18 03:32:33;;;;;;;35.58;31.17;;;16.70;99.90;;;;;;5045644;28;20088;-73
2023/09/18 03:34:58;;;;;;;23.25;20.02;;;16.70;99.90;;;;;;5054256;28;20033;-75
2023/09/18 03:37:24;;;;;;;32.65;29.05;;;16.70;99.90;;;;;;5048772;28;20045;-75
2023/09/18 03:39:50;;;;;;;30.50;26.67;;;16.70;99.90;;;;;;5034839;28;20145;-73
2023/09/18 03:42:16;;;;;;;39.92;31.35;;;16.70;99.90;;;;;;5053457;28;20045;-73
2023/09/18 03:44:41;;;;;;;36.15;30.23;;;16.70;99.90;;;;;;5053963;28;20114;-73
2023/09/18 03:47:07;;;;;;;28.52;24.40;;;16.70;99.90;;;;;;5046306;28;20049;-72
2023/09/18 03:49:33;;;;;;;32.50;28.88;;;16.70;99.90;;;;;;5054284;28;20099;-73
2023/09/18 03:51:58;;;;;;;31.95;27.58;;;16.70;99.90;;;;;;5051150;28;20044;-73
2023/09/18 03:54:24;;;;;;;25.23;22.58;;;16.70;99.90;;;;;;5047348;28;20401;-73
2023/09/18 03:56:49;;;;;;;32.50;26.65;;;16.70;99.90;;;;;;5050042;28;20045;-73
2023/09/18 03:59:15;;;;;;;31.30;26.33;;;16.70;99.90;;;;;;5060432;28;20060;-73
2023/09/18 04:01:41;;;;;;;34.65;28.13;;;16.70;99.90;;;;;;5062597;28;20045;-73
2023/09/18 04:04:07;;;;;;;35.33;28.00;;;16.70;99.90;;;;;;5053694;28;20037;-73
2023/09/18 04:06:37;;;;;;;34.13;27.33;;;16.70;99.90;;;;;;5054269;28;20514;-73
2023/09/18 04:09:03;;;;;;;32.42;26.67;;;16.70;99.90;;;;;;5037170;28;20088;-73
2023/09/18 04:11:32;;;;;;;29.27;23.85;;;16.70;99.90;;;;;;5054189;28;20053;-73
2023/09/18 04:13:59;;;;;;;31.95;27.13;;;16.60;99.90;;;;;;5053798;28;20048;-72
2023/09/18 04:16:28;;;;;;;34.50;27.25;;;16.70;99.90;;;;;;5064181;28;20053;-73
2023/09/18 04:18:54;;;;;;;28.30;24.23;;;16.70;99.90;;;;;;5054327;28;20388;-73
2023/09/18 04:21:21;;;;;;;29.77;26.50;;;16.70;99.90;;;;;;5055354;28;20045;-72
2023/09/18 04:23:47;;;;;;;33.45;27.10;;;16.60;99.90;;;;;;5033106;28;20152;-73
2023/09/18 04:26:15;;;;;;;34.90;26.45;;;16.70;99.90;;;;;;5052698;28;20120;-73
2023/09/18 04:28:42;;;;;;;32.95;26.33;;;16.70;99.90;;;;;;5051655;28;20127;-73
2023/09/18 04:31:07;;;;;;;28.15;24.98;;;16.70;99.90;;;;;;5053496;28;20080;-73
2023/09/18 04:33:33;;;;;;;32.08;25.27;;;16.70;99.90;;;;;;5053487;28;20150;-73
2023/09/18 04:35:59;;;;;;;30.75;26.88;;;16.70;99.90;;;;;;5062397;28;20052;-73
2023/09/18 04:38:25;;;;;;;33.75;26.58;;;16.70;99.90;;;;;;5056587;28;20041;-72
2023/09/18 04:40:58;;;;;;;30.92;25.60;;;16.70;99.90;;;;;;5052586;28;20037;-73
2023/09/18 04:43:24;;;;;;;30.27;24.80;;;16.70;99.90;;;;;;5051048;28;20128;-73
2023/09/18 04:45:50;;;;;;;29.80;25.50;;;16.70;99.90;;;;;;5051703;28;20084;-72
2023/09/18 04:48:16;;;;;;;29.38;25.38;;;16.70;99.90;;;;;;5044667;28;20105;-73
2023/09/18 04:50:47;;;;;;;27.67;24.65;;;16.70;99.90;;;;;;5045561;28;20128;-73
2023/09/18 04:53:13;;;;;;;31.63;24.92;;;16.70;99.90;;;;;;5036358;28;20565;-74
2023/09/18 04:55:38;;;;;;;30.73;25.88;;;16.70;99.90;;;;;;5052929;28;20084;-74
2023/09/18 04:58:05;;;;;;;30.70;23.02;;;16.70;99.90;;;;;;5052269;28;20079;-75
2023/09/18 05:00:31;;;;;;;30.65;24.27;;;16.70;99.90;;;;;;5048801;28;20049;-75
2023/09/18 05:03:00;;;;;;;30.48;25.17;;;16.70;99.90;;;;;;5049865;28;20056;-74
2023/09/18 05:05:26;;;;;;;28.38;24.98;;;16.80;99.90;;;;;;5052147;28;20052;-74
2023/09/18 05:07:51;;;;;;;29.08;23.45;;;16.80;99.90;;;;;;5047991;28;20484;-75
2023/09/18 05:10:17;;;;;;;29.73;24.05;;;16.80;99.90;;;;;;5042749;28;20382;-76
2023/09/18 05:12:43;;;;;;;29.23;23.42;;;16.80;99.90;;;;;;5046332;28;20051;-75
2023/09/18 05:15:15;;;;;;;29.98;21.50;;;16.80;99.90;;;;;;5048957;28;20076;-75
2023/09/18 05:17:43;;;;;;;30.30;24.25;;;16.80;99.90;;;;;;5041971;28;20905;-76
2023/09/18 05:20:15;;;;;;;31.52;24.05;;;16.80;99.90;;;;;;5053134;28;20656;-75
2023/09/18 05:22:42;;;;;;;28.27;24.15;;;16.90;99.90;;;;;;5045760;28;20037;-74
2023/09/18 05:25:09;;;;;;;27.83;22.70;;;16.80;99.90;;;;;;5049973;28;20067;-75
2023/09/18 05:27:43;;;;;;;28.98;23.08;;;16.90;99.90;;;;;;5044224;28;20045;-75
2023/09/18 05:30:21;;;;;;;26.30;22.73;;;16.90;99.90;;;;;;5043375;28;20040;-75
2023/09/18 05:32:47;;;;;;;31.65;22.13;;;16.90;99.90;;;;;;5077348;28;20130;-76
2023/09/18 05:35:14;;;;;;;24.23;20.98;;;16.90;99.90;;;;;;5040143;28;20128;-74
2023/09/18 05:37:40;;;;;;;29.30;23.15;;;16.90;99.90;;;;;;5029309;28;20085;-74
2023/09/18 05:40:11;;;;;;;30.63;23.30;;;16.90;99.90;;;;;;5047560;28;20124;-74
2023/09/18 05:42:45;;;;;;;29.25;23.00;;;16.90;99.90;;;;;;5043448;28;20571;-75
2023/09/18 05:45:12;;;;;;;26.27;21.83;;;17.00;99.90;;;;;;5046907;28;20056;-75
2023/09/18 05:47:38;;;;;;;25.25;20.00;;;17.00;99.90;;;;;;5044162;28;20055;-75
2023/09/18 05:50:08;;;;;;;26.20;21.27;;;17.00;99.90;;;;;;5050031;28;20484;-76
2023/09/18 05:52:34;;;;;;;23.20;19.58;;;17.00;99.90;;;;;;5044320;28;20049;-75
2023/09/18 05:55:01;;;;;;;27.00;18.75;;;17.00;99.90;;;;;;5046539;28;20045;-74
2023/09/18 05:57:27;;;;;;;22.73;17.15;;;17.00;99.90;;;;;;5043871;28;20439;-73
2023/09/18 05:59:55;;;;;;;20.63;14.93;;;17.10;99.90;;;;;;5044225;28;20057;-73
2023/09/18 06:02:21;;;;;;;21.48;16.00;;;17.10;99.90;;;;;;5049800;28;20123;-73
2023/09/18 06:04:47;;;;;;;22.23;14.55;;;17.10;99.90;;;;;;5080729;28;20417;-73
2023/09/18 06:07:13;;;;;;;22.70;15.10;;;17.20;99.90;;;;;;5038133;28;20041;-74
2023/09/18 06:09:39;;;;;;;20.52;13.18;;;17.30;99.90;;;;;;5048407;28;20416;-73
2023/09/18 06:12:07;;;;;;;19.65;13.95;;;17.30;99.90;;;;;;5058934;28;20401;-75
2023/09/18 06:14:37;;;;;;;17.55;12.63;;;17.40;99.90;;;;;;5061559;28;20524;-74
2023/09/18 06:17:06;;;;;;;18.00;12.73;;;17.40;99.90;;;;;;5042911;28;20040;-74
2023/09/18 06:19:33;;;;;;;15.60;12.35;;;17.50;99.90;;;;;;5048930;28;20408;-74
2023/09/18 06:22:08;;;;;;;16.75;11.98;;;17.60;99.90;;;;;;5053732;28;20041;-74
2023/09/18 06:24:35;;;;;;;16.63;11.77;;;17.60;99.90;;;;;;5052529;28;20047;-74
2023/09/18 06:27:01;;;;;;;15.73;11.80;;;17.60;99.90;;;;;;5036148;28;20055;-73
2023/09/18 06:29:28;;;;;;;17.60;10.93;;;17.60;99.90;;;;;;5051190;28;20110;-73
2023/09/18 06:31:54;;;;;;;14.15;11.50;;;17.70;99.90;;;;;;5047858;28;20053;-73
2023/09/18 06:34:21;;;;;;;17.60;10.68;;;17.80;99.90;;;;;;5052314;28;20052;-72
2023/09/18 06:36:47;;;;;;;17.38;10.40;;;17.80;99.90;;;;;;5052103;28;20064;-73
2023/09/18 06:39:12;;;;;;;17.40;10.63;;;17.80;99.90;;;;;;5052462;28;20087;-72
2023/09/18 06:41:38;;;;;;;15.40;10.52;;;17.80;99.90;;;;;;5051806;28;20049;-72
2023/09/18 06:44:04;;;;;;;12.50;10.15;;;17.80;99.90;;;;;;5034529;28;20059;-73
2023/09/18 06:46:30;;;;;;;15.38;10.95;;;17.90;99.90;;;;;;5045475;28;20052;-73
2023/09/18 06:49:00;;;;;;;19.08;11.50;;;17.90;99.90;;;;;;5046281;28;20075;-73
2023/09/18 06:51:29;;;;;;;15.40;10.93;;;18.00;99.90;;;;;;5023335;28;20045;-74
2023/09/18 06:53:57;;;;;;;18.70;11.85;;;18.00;99.90;;;;;;5040580;28;20056;-75
2023/09/18 06:56:24;;;;;;;16.58;11.75;;;18.00;99.90;;;;;;5047416;28;20128;-74
2023/09/18 06:58:51;;;;;;;15.75;10.98;;;18.00;99.90;;;;;;5047309;28;20440;-73
2023/09/18 07:01:18;;;;;;;13.82;10.48;;;18.00;99.90;;;;;;5051595;28;20388;-73
2023/09/18 07:03:46;;;;;;;15.85;10.38;;;18.00;99.90;;;;;;5050780;28;20057;-73
2023/09/18 07:06:14;;;;;;;18.42;11.95;;;18.00;99.90;;;;;;5034651;28;20049;-73
2023/09/18 07:08:39;;;;;;;15.98;11.23;;;18.00;99.90;;;;;;5050639;28;20045;-73
2023/09/18 07:11:05;;;;;;;17.92;12.10;;;18.00;99.90;;;;;;5050489;28;20381;-73
2023/09/18 07:13:30;;;;;;;19.08;11.88;;;18.00;99.90;;;;;;5051477;28;20045;-73
2023/09/18 07:15:56;;;;;;;19.42;13.32;;;17.90;99.90;;;;;;5050241;28;20456;-74
2023/09/18 07:18:22;;;;;;;21.17;12.07;;;18.00;99.90;;;;;;5049943;28;20096;-74
2023/09/18 07:20:47;;;;;;;30.92;15.85;;;18.00;99.90;;;;;;5051397;28;20048;-75
2023/09/18 07:23:13;;;;;;;26.77;17.38;;;18.00;99.90;;;;;;5049825;28;20519;-75
2023/09/18 07:25:39;;;;;;;29.95;17.25;;;18.00;99.90;;;;;;5050098;28;20049;-75
2023/09/18 07:28:08;;;;;;;25.90;15.52;;;17.90;99.90;;;;;;5046974;28;20049;-77
2023/09/18 07:30:35;;;;;;;19.38;14.55;;;17.90;99.90;;;;;;5048674;28;20471;-76
2023/09/18 07:33:01;;;;;;;24.77;16.75;;;17.90;99.90;;;;;;5049581;28;20048;-76
2023/09/18 07:35:27;;;;;;;24.42;15.73;;;17.90;99.90;;;;;;5051179;28;20397;-75
2023/09/18 07:37:53;;;;;;;21.35;13.88;;;17.80;99.90;;;;;;5053886;28;20049;-76
2023/09/18 07:40:19;;;;;;;24.02;15.18;;;17.80;99.90;;;;;;5055245;28;20110;-76
2023/09/18 07:42:45;;;;;;;21.27;17.00;;;17.90;99.90;;;;;;5054715;28;20392;-75
2023/09/18 07:45:11;;;;;;;19.38;15.93;;;17.90;99.90;;;;;;5037450;28;20397;-75
2023/09/18 07:47:37;;;;;;;19.13;14.63;;;17.90;99.90;;;;;;5053803;28;20090;-80
2023/09/18 07:50:04;;;;;;;20.23;15.45;;;17.90;99.90;;;;;;5054452;28;20048;-81
2023/09/18 07:52:31;;;;;;;20.40;15.45;;;17.90;99.90;;;;;;5037077;28;20053;-80
2023/09/18 07:55:00;;;;;;;18.48;14.55;;;17.90;99.90;;;;;;5057429;28;20048;-81
2023/09/18 07:57:31;;;;;;;18.85;14.25;;;17.90;99.90;;;;;;5058231;28;20412;-80
2023/09/18 07:59:58;;;;;;;17.02;13.13;;;17.90;99.90;;;;;;5070267;28;20049;-81
2023/09/18 08:02:25;;;;;;;19.23;14.07;;;18.00;99.90;;;;;;5052528;28;20127;-75
2023/09/18 08:04:52;;;;;;;20.27;15.50;;;18.00;99.90;;;;;;5053174;28;20037;-76
2023/09/18 08:07:18;;;;;;;20.88;16.23;;;17.90;99.90;;;;;;5053953;28;20049;-77
2023/09/18 08:09:44;;;;;;;23.63;14.65;;;18.00;99.90;;;;;;5053558;28;20041;-77
2023/09/18 08:12:10;;;;;;;22.38;16.75;;;18.00;99.90;;;;;;5051918;28;20036;-77
2023/09/18 08:14:36;;;;;;;19.98;14.20;;;18.00;99.90;;;;;;5053335;28;20059;-76
2023/09/18 08:17:05;;;;;;;23.83;16.63;;;18.00;99.90;;;;;;5052651;28;20052;-77
2023/09/18 08:19:35;;;;;;;21.88;15.18;;;18.00;99.90;;;;;;5051049;28;20086;-76
2023/09/18 08:22:01;;;;;;;20.98;14.35;;;18.00;99.90;;;;;;5052536;28;20400;-77
2023/09/18 08:24:26;;;;;;;24.35;16.45;;;18.00;99.90;;;;;;5052853;28;20052;-79
2023/09/18 08:26:52;;;;;;;18.77;14.10;;;18.10;99.90;;;;;;5049377;28;20543;-76
2023/09/18 08:29:18;;;;;;;19.05;14.32;;;18.10;99.90;;;;;;5053047;28;20558;-77
2023/09/18 08:31:44;;;;;;;18.77;13.45;;;18.10;99.90;;;;;;5050930;28;20072;-76
2023/09/18 08:34:10;;;;;;;18.60;14.52;;;18.10;99.90;;;;;;5047376;28;20049;-75
2023/09/18 08:36:35;;;;;;;19.15;13.35;;;18.10;99.90;;;;;;5032981;28;20451;-75
2023/09/18 08:39:01;;;;;;;21.42;15.00;;;18.10;99.90;;;;;;5048185;28;20510;-74
2023/09/18 08:41:30;;;;;;;17.15;13.07;;;18.10;99.90;;;;;;5053223;28;20049;-75
2023/09/18 08:44:03;;;;;;;18.33;13.73;;;18.10;99.90;;;;;;5052633;28;20408;-75
2023/09/18 08:46:29;;;;;;;18.73;13.57;;;18.10;99.90;;;;;;5052927;28;20091;-74
2023/09/18 08:48:56;;;;;;;18.55;13.55;;;18.10;99.90;;;;;;5051810;28;20127;-75
2023/09/18 08:51:23;;;;;;;19.55;13.57;;;18.20;99.90;;;;;;5052542;28;20044;-75
2023/09/18 08:53:50;;;;;;;16.92;13.52;;;18.20;99.90;;;;;;5036340;28;20045;-74
2023/09/18 08:56:17;;;;;;;19.52;15.07;;;18.30;99.90;;;;;;5052275;28;20054;-74
2023/09/18 08:58:43;;;;;;;19.38;14.48;;;18.40;99.90;;;;;;5051969;28;20072;-75
2023/09/18 09:01:09;;;;;;;22.55;15.40;;;18.40;99.90;;;;;;5052420;28;20045;-74
2023/09/18 09:03:45;;;;;;;21.58;14.23;;;18.50;99.90;;;;;;5051971;28;20048;-75
2023/09/18 09:06:12;;;;;;;25.85;15.25;;;18.50;99.90;;;;;;5052304;28;20064;-74
2023/09/18 09:08:38;;;;;;;22.60;15.55;;;18.50;99.90;;;;;;5051767;28;20102;-74
2023/09/18 09:11:04;;;;;;;18.80;12.98;;;18.50;99.90;;;;;;5046818;28;20083;-75
2023/09/18 09:13:30;;;;;;;21.90;15.88;;;18.50;99.90;;;;;;5070964;28;20490;-75
2023/09/18 09:15:58;;;;;;;21.67;15.73;;;18.50;99.90;;;;;;5045933;28;20037;-76
2023/09/18 09:18:29;;;;;;;24.00;17.95;;;18.50;99.90;;;;;;5044991;28;20141;-76
2023/09/18 09:21:04;;;;;;;18.15;15.70;;;18.50;99.90;;;;;;5040679;28;20480;-75
2023/09/18 09:23:48;;;;;;;21.13;15.57;;;18.50;99.90;;;;;;5048293;28;20052;-76
2023/09/18 09:26:16;;;;;;;21.63;16.42;;;18.50;99.90;;;;;;5044162;28;20041;-75
2023/09/18 09:28:43;;;;;;;22.92;17.50;;;18.50;99.90;;;;;;5043684;28;20048;-76
2023/09/18 09:31:10;;;;;;;22.88;16.48;;;18.50;99.90;;;;;;5044656;28;20132;-75
2023/09/18 09:33:40;;;;;;;25.75;18.52;;;18.50;99.90;;;;;;5045548;28;20057;-75
2023/09/18 09:36:06;;;;;;;21.05;16.20;;;18.50;99.90;;;;;;5079696;28;20404;-75
2023/09/18 09:38:34;;;;;;;26.55;18.58;;;18.60;99.90;;;;;;5049787;28;20133;-75
2023/09/18 09:41:06;;;;;;;26.38;19.60;;;18.60;99.90;;;;;;5038812;28;20131;-75
2023/09/18 09:43:33;;;;;;;29.23;20.88;;;18.70;99.90;;;;;;5045526;28;20059;-75
2023/09/18 09:46:03;;;;;;;30.70;21.98;;;18.70;99.90;;;;;;5048910;28;20531;-74
2023/09/18 09:48:32;;;;;;;28.35;19.63;;;18.80;99.90;;;;;;5044169;28;20048;-76
2023/09/18 09:51:00;;;;;;;25.38;20.08;;;18.80;99.90;;;;;;5069843;28;20056;-75
2023/09/18 09:53:47;;;;;;;25.10;20.35;;;18.90;99.90;;;;;;5046211;28;20037;-75
2023/09/18 09:56:15;;;;;;;28.30;20.58;;;18.90;99.90;;;;;;5047979;28;20432;-74
2023/09/18 09:58:43;;;;;;;28.58;21.45;;;19.00;99.90;;;;;;5050165;28;20049;-75
2023/09/18 10:01:17;;;;;;;25.77;20.60;;;19.00;99.90;;;;;;5051020;28;20477;-75
2023/09/18 10:03:44;;;;;;;24.27;19.00;;;19.10;99.90;;;;;;5051564;28;20099;-75
2023/09/18 10:06:12;;;;;;;29.42;21.63;;;19.10;99.90;;;;;;5050327;28;20416;-75
2023/09/18 10:08:39;;;;;;;26.67;18.17;;;19.20;99.90;;;;;;5049873;28;20531;-74
2023/09/18 10:11:10;;;;;;;26.83;19.00;;;19.20;99.90;;;;;;5052157;28;20041;-74
2023/09/18 10:13:57;;;;;;;24.48;20.50;;;19.30;99.90;;;;;;5048816;28;20045;-74
2023/09/18 10:16:28;;;;;;;26.25;19.90;;;19.40;99.90;;;;;;5032223;28;20045;-74
2023/09/18 10:19:08;;;;;;;23.67;19.50;;;19.50;99.90;;;;;;5050848;28;20051;-76
2023/09/18 10:22:00;;;;;;;23.20;17.63;;;19.50;99.90;;;;;;5035418;28;20057;-74
2023/09/18 10:24:31;;;;;;;22.73;19.73;;;19.50;99.90;;;;;;5033109;28;20050;-74
2023/09/18 10:27:00;;;;;;;24.95;18.75;;;19.60;99.90;;;;;;5044769;28;20492;-74
2023/09/18 10:29:27;;;;;;;24.05;17.75;;;19.70;99.90;;;;;;5051606;28;20053;-75
2023/09/18 10:31:54;;;;;;;20.25;17.17;;;19.80;99.90;;;;;;5049725;28;20440;-74
2023/09/18 10:34:21;;;;;;;21.85;16.30;;;19.80;99.90;;;;;;5051326;28;20053;-75
2023/09/18 10:36:48;;;;;;;25.25;17.65;;;19.90;99.90;;;;;;5051297;28;20138;-75
2023/09/18 10:39:19;;;;;;;19.08;15.27;;;19.90;99.90;;;;;;5051301;28;20492;-74
2023/09/18 10:41:47;;;;;;;17.55;14.93;;;20.00;99.90;;;;;;5051620;28;20433;-75
2023/09/18 10:44:15;;;;;;;16.35;13.93;;;20.00;99.90;;;;;;5051788;28;20056;-75
2023/09/18 10:46:41;;;;;;;19.10;13.18;;;20.10;99.90;;;;;;5050430;28;20102;-74
2023/09/18 10:49:07;;;;;;;17.98;12.93;;;20.10;99.90;;;;;;5051082;28;20454;-76
2023/09/18 10:51:33;;;;;;;14.77;12.13;;;20.20;99.90;;;;;;5051402;28;20471;-76
2023/09/18 10:54:00;;;;;;;13.27;11.65;;;20.30;99.90;;;;;;5050075;28;20052;-73
2023/09/18 10:56:26;;;;;;;14.30;11.00;;;20.40;99.90;;;;;;5050322;28;20040;-74
2023/09/18 10:59:00;;;;;;;12.95;10.50;;;20.60;99.90;;;;;;5051005;28;20049;-76
2023/09/18 11:01:28;;;;;;;14.52;9.13;;;20.70;99.90;;;;;;5050069;28;20040;-74
2023/09/18 11:04:01;;;;;;;11.57;9.88;;;20.80;99.90;;;;;;5050821;28;20057;-75
2023/09/18 11:06:27;;;;;;;13.77;8.50;;;20.80;99.90;;;;;;5051009;28;20055;-74
2023/09/18 11:09:03;;;;;;;10.98;7.68;;;20.80;99.90;;;;;;5052493;28;20049;-74
2023/09/18 11:11:32;;;;;;;11.07;8.20;;;20.80;99.90;;;;;;5054557;28;20060;-74
2023/09/18 11:13:59;;;;;;;9.60;7.82;;;20.90;99.90;;;;;;5054470;28;20053;-75
2023/09/18 11:16:28;;;;;;;8.48;6.70;;;20.90;99.90;;;;;;5052361;28;20127;-74
2023/09/18 11:19:00;;;;;;;9.75;7.28;;;20.90;99.90;;;;;;5036953;28;20049;-74
2023/09/18 11:21:30;;;;;;;8.43;6.65;;;20.90;99.90;;;;;;5053645;28;20064;-74
2023/09/18 11:24:01;;;;;;;9.27;6.32;;;20.80;99.90;;;;;;5052653;28;20047;-74
2023/09/18 11:26:35;;;;;;;10.25;6.47;;;20.80;99.90;;;;;;5054001;28;20136;-75
2023/09/18 11:29:05;;;;;;;11.57;7.30;;;20.80;99.90;;;;;;5079228;28;20047;-74
2023/09/18 11:31:55;;;;;;;7.75;6.50;;;20.80;99.90;;;;;;5054297;28;20102;-75
2023/09/18 11:34:23;;;;;;;10.18;7.68;;;20.70;99.90;;;;;;5053906;28;20056;-74
2023/09/18 11:36:50;;;;;;;8.50;6.45;;;20.60;99.90;;;;;;5038232;28;20048;-74
2023/09/18 11:39:45;;;;;;;10.25;6.95;;;20.70;99.90;;;;;;5054408;28;20484;-75
2023/09/18 11:42:22;;;;;;;10.52;6.43;;;20.80;99.90;;;;;;5049634;28;20075;-74
2023/09/18 11:44:49;;;;;;;7.25;6.18;;;20.90;99.90;;;;;;5053813;28;20082;-75
2023/09/18 11:47:19;;;;;;;10.63;6.60;;;21.10;99.90;;;;;;5053166;28;20057;-75
2023/09/18 11:49:53;;;;;;;10.05;6.50;;;21.10;99.90;;;;;;5051208;28;20037;-75
2023/09/18 11:52:19;;;;;;;9.18;6.53;;;21.10;99.90;;;;;;5047498;28;20565;-78
2023/09/18 11:54:46;;;;;;;9.15;6.40;;;21.00;99.90;;;;;;5051266;28;20052;-75
2023/09/18 11:57:13;;;;;;;8.73;6.38;;;21.00;99.90;;;;;;5054139;28;20106;-76
2023/09/18 11:59:43;;;;;;;9.93;6.47;;;20.90;99.90;;;;;;5086419;28;20056;-74
2023/09/18 12:02:11;;;;;;;9.25;6.47;;;20.90;99.90;;;;;;5053778;28;20084;-75
2023/09/18 12:04:36;;;;;;;9.30;6.38;;;20.80;99.90;;;;;;5053926;28;20053;-75
2023/09/18 12:07:06;;;;;;;9.38;6.68;;;20.70;99.90;;;;;;5071715;28;20046;-75
2023/09/18 12:09:33;;;;;;;8.20;6.55;;;20.70;99.90;;;;;;5054559;28;20056;-75
2023/09/18 12:12:03;;;;;;;7.38;6.00;;;20.80;99.90;;;;;;5054296;28;20400;-75
2023/09/18 12:14:33;;;;;;;10.07;5.70;;;21.10;99.90;;;;;;5054456;28;20053;-74
2023/09/18 12:17:03;;;;;;;7.85;5.45;;;21.20;99.90;;;;;;5054488;28;20147;-74
2023/09/18 12:19:30;;;;;;;8.02;5.63;;;21.50;99.90;;;;;;5054092;28;20408;-74
2023/09/18 12:21:56;;;;;;;7.22;6.05;;;21.60;99.90;;;;;;5053463;28;20041;-74
2023/09/18 12:24:23;;;;;;;8.35;6.07;;;21.70;99.90;;;;;;5053638;28;20055;-76
2023/09/18 12:26:49;;;;;;;8.48;5.70;;;21.70;99.90;;;;;;5054070;28;20094;-75
2023/09/18 12:29:15;;;;;;;7.95;5.07;;;21.70;99.90;;;;;;5053603;28;20041;-74
2023/09/18 12:31:41;;;;;;;6.63;4.95;;;21.80;99.90;;;;;;5052929;28;20049;-75